createdAt,value
2019-03-06T00:02:01.578Z,6.67
2019-03-06T00:04:31.603Z,5.90
2019-03-06T00:07:01.305Z,6.62
2019-03-06T00:09:31.035Z,6.55
2019-03-06T00:12:00.724Z,6.15
2019-03-06T00:14:30.353Z,6.05
2019-03-06T00:17:00.044Z,5.83
2019-03-06T00:19:29.698Z,6.10
2019-03-06T00:21:59.365Z,6.40
2019-03-06T00:24:28.981Z,6.65
2019-03-06T00:26:58.686Z,6.25
2019-03-06T00:29:28.410Z,6.12
2019-03-06T00:31:58.020Z,6.28
2019-03-06T00:34:27.717Z,5.80
2019-03-06T00:36:57.349Z,6.30
2019-03-06T00:39:30.566Z,5.85
2019-03-06T00:42:00.154Z,5.70
2019-03-06T00:44:29.837Z,5.83
2019-03-06T00:46:59.454Z,5.67
2019-03-06T00:49:29.160Z,6.05
2019-03-06T00:51:58.869Z,5.78
2019-03-06T00:54:28.497Z,5.83
2019-03-06T00:56:58.097Z,6.08
2019-03-06T00:59:27.716Z,5.78
2019-03-06T01:01:57.477Z,5.75
2019-03-06T01:04:27.136Z,5.60
2019-03-06T01:06:56.930Z,5.87
2019-03-06T01:09:26.562Z,5.65
2019-03-06T01:11:56.251Z,6.12
2019-03-06T01:14:26.184Z,6.55
2019-03-06T01:16:55.879Z,5.58
2019-03-06T01:19:25.579Z,5.80
2019-03-06T01:21:55.304Z,5.55
2019-03-06T01:24:25.013Z,5.65
2019-03-06T01:26:54.922Z,5.62
2019-03-06T01:29:24.636Z,5.95
2019-03-06T01:31:54.369Z,5.12
2019-03-06T01:34:42.821Z,5.17
2019-03-06T01:37:26.982Z,5.60
2019-03-06T01:40:24.765Z,5.30
2019-03-06T01:43:22.580Z,5.40
2019-03-06T01:45:52.193Z,5.40
2019-03-06T01:48:21.824Z,5.53
2019-03-06T01:50:51.509Z,4.75
2019-03-06T01:53:21.142Z,6.10
2019-03-06T01:55:50.827Z,5.45
2019-03-06T01:58:20.538Z,5.72
2019-03-06T02:00:50.163Z,5.62
2019-03-06T02:03:19.854Z,5.37
2019-03-06T02:05:49.498Z,5.10
2019-03-06T02:08:19.182Z,5.80
2019-03-06T02:10:49.020Z,5.15
2019-03-06T02:13:19.214Z,4.83
2019-03-06T02:15:48.843Z,5.37
2019-03-06T02:18:18.532Z,5.28
2019-03-06T02:20:48.224Z,5.58
2019-03-06T02:23:17.853Z,4.85
2019-03-06T02:25:47.486Z,5.05
2019-03-06T02:28:17.172Z,5.03
2019-03-06T02:30:46.887Z,4.72
2019-03-06T02:33:16.598Z,5.10
2019-03-06T02:35:46.319Z,5.37
2019-03-06T02:38:15.939Z,4.85
2019-03-06T02:40:45.836Z,4.70
2019-03-06T02:43:15.465Z,5.28
2019-03-06T02:45:45.213Z,4.75
2019-03-06T02:48:14.890Z,4.83
2019-03-06T02:50:44.573Z,4.70
2019-03-06T02:53:14.179Z,4.85
2019-03-06T02:55:43.784Z,5.25
2019-03-06T02:58:23.841Z,5.22
2019-03-06T03:01:27.445Z,4.55
2019-03-06T03:04:18.571Z,4.65
2019-03-06T03:06:57.216Z,5.33
2019-03-06T03:09:26.825Z,5.17
2019-03-06T03:11:56.706Z,4.67
2019-03-06T03:14:26.333Z,4.87
2019-03-06T03:16:56.032Z,4.58
2019-03-06T03:19:25.660Z,5.08
2019-03-06T03:21:55.352Z,4.78
2019-03-06T03:24:24.964Z,4.53
2019-03-06T03:26:54.777Z,4.47
2019-03-06T03:29:24.471Z,4.87
2019-03-06T03:31:54.193Z,4.78
2019-03-06T03:34:23.900Z,4.92
2019-03-06T03:36:53.522Z,4.67
2019-03-06T03:39:23.217Z,4.83
2019-03-06T03:41:52.853Z,4.33
2019-03-06T03:44:22.530Z,4.72
2019-03-06T03:46:52.209Z,4.60
2019-03-06T03:49:21.862Z,4.90
2019-03-06T03:51:51.574Z,4.70
2019-03-06T03:54:21.278Z,4.70
2019-03-06T03:56:50.997Z,4.53
2019-03-06T03:59:20.605Z,4.30
2019-03-06T04:01:50.319Z,4.45
2019-03-06T04:04:19.946Z,4.33
2019-03-06T04:06:49.636Z,4.47
2019-03-06T04:09:19.240Z,4.25
2019-03-06T04:11:49.006Z,4.10
2019-03-06T04:14:18.655Z,4.40
2019-03-06T04:16:48.368Z,4.17
2019-03-06T04:19:18.091Z,4.25
2019-03-06T04:21:47.716Z,4.15
2019-03-06T04:24:17.393Z,4.75
2019-03-06T04:26:47.033Z,4.53
2019-03-06T04:29:16.729Z,4.50
2019-03-06T04:31:46.346Z,4.40
2019-03-06T04:34:16.048Z,4.03
2019-03-06T04:36:45.749Z,4.37
2019-03-06T04:39:15.467Z,4.25
2019-03-06T04:41:45.171Z,3.90
2019-03-06T04:44:14.863Z,3.95
2019-03-06T04:46:44.600Z,4.15
2019-03-06T04:49:14.223Z,3.92
2019-03-06T04:51:44.052Z,3.62
2019-03-06T04:54:13.649Z,3.95
2019-03-06T04:56:43.342Z,4.12
2019-03-06T04:59:13.047Z,4.15
2019-03-06T05:01:42.777Z,3.55
2019-03-06T05:04:12.484Z,3.65
2019-03-06T05:06:41.875Z,4.10
2019-03-06T05:09:12.127Z,4.10
2019-03-06T05:11:41.808Z,4.00
2019-03-06T05:14:11.781Z,3.60
2019-03-06T05:17:00.192Z,4.30
2019-03-06T05:19:29.816Z,4.25
2019-03-06T05:21:59.521Z,4.12
2019-03-06T05:24:29.207Z,3.85
2019-03-06T05:26:58.920Z,4.22
2019-03-06T05:29:28.823Z,4.03
2019-03-06T05:32:26.640Z,3.85
2019-03-06T05:34:56.410Z,3.65
2019-03-06T05:38:12.870Z,3.80
2019-03-06T05:40:46.371Z,4.15
2019-03-06T05:43:16.613Z,3.95
2019-03-06T05:45:47.373Z,4.28
2019-03-06T05:48:16.804Z,3.87
2019-03-06T05:50:46.414Z,4.40
2019-03-06T05:53:16.243Z,3.80
2019-03-06T05:55:45.821Z,3.90
2019-03-06T05:58:15.523Z,3.98
2019-03-06T06:00:45.195Z,3.87
2019-03-06T06:03:14.844Z,4.30
2019-03-06T06:05:44.611Z,3.90
2019-03-06T06:08:14.182Z,4.05
2019-03-06T06:10:43.860Z,4.97
2019-03-06T06:13:13.398Z,3.90
2019-03-06T06:15:43.082Z,3.70
2019-03-06T06:18:12.719Z,4.22
2019-03-06T06:20:42.400Z,3.45
2019-03-06T06:23:36.958Z,4.33
2019-03-06T06:26:06.687Z,4.60
2019-03-06T06:28:36.540Z,4.62
2019-03-06T06:31:06.276Z,5.12
2019-03-06T06:33:35.860Z,4.33
2019-03-06T06:36:05.558Z,4.22
2019-03-06T06:38:37.356Z,4.60
2019-03-06T06:41:06.713Z,6.05
2019-03-06T06:43:36.431Z,5.28
2019-03-06T06:46:07.564Z,5.75
2019-03-06T06:48:37.396Z,5.40
2019-03-06T06:51:12.428Z,5.15
2019-03-06T06:53:55.915Z,7.42
2019-03-06T06:56:47.085Z,7.08
2019-03-06T06:59:51.390Z,8.70
2019-03-06T07:03:40.847Z,6.65
2019-03-06T07:06:34.177Z,6.60
2019-03-06T07:09:17.817Z,7.05
2019-03-06T07:12:00.426Z,7.00
2019-03-06T07:14:54.919Z,6.90
2019-03-06T07:17:58.404Z,6.40
2019-03-06T07:20:40.800Z,6.55
2019-03-06T07:23:24.230Z,7.15
2019-03-06T07:26:15.800Z,5.92
2019-03-06T07:29:04.226Z,5.80
2019-03-06T07:31:55.829Z,6.50
2019-03-06T07:34:33.316Z,11.90
2019-03-06T07:37:16.325Z,8.25
2019-03-06T07:39:53.837Z,7.00
2019-03-06T07:43:00.405Z,8.03
2019-03-06T07:46:05.646Z,7.95
2019-03-06T07:49:03.112Z,7.62
2019-03-06T07:51:39.219Z,7.45
2019-03-06T07:54:27.944Z,8.50
2019-03-06T07:57:01.360Z,8.80
2019-03-06T07:59:31.037Z,7.80
2019-03-06T08:02:07.368Z,8.30
2019-03-06T08:04:36.930Z,7.83
2019-03-06T08:07:14.005Z,7.35
2019-03-06T08:09:43.712Z,8.55
2019-03-06T08:12:30.798Z,8.40
2019-03-06T08:15:34.560Z,8.55
2019-03-06T08:18:26.805Z,7.62
2019-03-06T08:21:27.569Z,8.03
2019-03-06T08:24:19.077Z,8.05
2019-03-06T08:26:48.669Z,7.58
2019-03-06T08:29:18.353Z,6.92
2019-03-06T08:31:53.752Z,7.65
2019-03-06T08:34:23.337Z,7.75
2019-03-06T08:36:53.025Z,8.08
2019-03-06T08:39:25.801Z,7.92
2019-03-06T08:41:55.522Z,7.33
2019-03-06T08:44:25.220Z,7.45
2019-03-06T08:47:16.469Z,8.18
2019-03-06T08:50:04.909Z,6.95
2019-03-06T08:53:00.737Z,6.80
2019-03-06T08:55:57.967Z,9.98
2019-03-06T08:58:55.738Z,7.33
2019-03-06T09:01:40.812Z,11.30
2019-03-06T09:04:27.858Z,11.20
2019-03-06T09:07:22.108Z,9.90
2019-03-06T09:10:10.584Z,8.93
2019-03-06T09:12:47.885Z,8.78
2019-03-06T09:15:39.433Z,8.30
2019-03-06T09:18:30.665Z,8.40
2019-03-06T09:21:28.293Z,8.30
2019-03-06T09:24:15.502Z,8.60
2019-03-06T09:27:05.465Z,8.23
2019-03-06T09:30:02.836Z,10.00
2019-03-06T09:32:43.994Z,9.08
2019-03-06T09:35:38.937Z,8.55
2019-03-06T09:38:23.287Z,8.70
2019-03-06T09:41:11.438Z,8.83
2019-03-06T09:43:55.646Z,8.70
2019-03-06T09:46:34.618Z,8.35
2019-03-06T09:49:26.307Z,8.13
2019-03-06T09:52:13.412Z,8.08
2019-03-06T09:55:17.231Z,8.03
2019-03-06T09:58:10.017Z,8.40
2019-03-06T10:00:58.470Z,8.23
2019-03-06T10:03:54.724Z,7.47
2019-03-06T10:06:49.221Z,8.20
2019-03-06T10:09:40.419Z,8.88
2019-03-06T10:12:28.864Z,8.65
2019-03-06T10:15:18.966Z,8.80
2019-03-06T10:17:53.575Z,11.83
2019-03-06T10:20:25.436Z,14.78
2019-03-06T10:22:59.518Z,27.58
2019-03-06T10:25:29.952Z,34.85
2019-03-06T10:28:05.978Z,34.65
2019-03-06T10:30:29.302Z,37.13
2019-03-06T10:32:58.985Z,33.60
2019-03-06T10:35:28.693Z,30.82
2019-03-06T10:37:58.601Z,27.67
2019-03-06T10:40:28.363Z,31.42
2019-03-06T10:42:58.443Z,30.17
2019-03-06T10:45:28.069Z,33.40
2019-03-06T10:47:58.005Z,34.15
2019-03-06T10:50:29.828Z,34.50
2019-03-06T10:52:59.022Z,46.02
2019-03-06T10:55:28.666Z,43.90
2019-03-06T10:57:58.541Z,47.00
2019-03-06T11:00:31.550Z,51.05
2019-03-06T11:03:01.449Z,48.48
2019-03-06T11:05:32.621Z,47.33
2019-03-06T11:08:02.205Z,47.35
2019-03-06T11:10:33.513Z,48.08
2019-03-06T11:13:04.438Z,50.35
2019-03-06T11:15:34.199Z,47.13
2019-03-06T11:18:03.844Z,50.23
2019-03-06T11:20:33.929Z,50.65
2019-03-06T11:23:03.752Z,52.65
2019-03-06T11:25:33.656Z,47.60
2019-03-06T11:28:03.295Z,45.63
2019-03-06T11:30:35.305Z,49.18
2019-03-06T11:33:05.440Z,48.65
2019-03-06T11:35:35.117Z,51.08
2019-03-06T11:38:04.888Z,51.55
2019-03-06T11:40:35.580Z,52.67
2019-03-06T11:43:05.537Z,53.90
2019-03-06T11:45:35.317Z,48.02
2019-03-06T11:48:05.050Z,50.83
2019-03-06T11:50:40.928Z,53.05
2019-03-06T11:53:06.428Z,52.73
2019-03-06T11:55:36.042Z,53.15
2019-03-06T11:58:05.741Z,51.92
2019-03-06T12:00:39.012Z,51.92
2019-03-06T12:03:08.752Z,53.05
2019-03-06T12:05:38.569Z,53.02
2019-03-06T12:08:10.378Z,54.18
2019-03-06T12:10:40.031Z,52.13
2019-03-06T12:13:14.264Z,51.55
2019-03-06T12:15:45.137Z,52.75
2019-03-06T12:18:14.798Z,51.00
2019-03-06T12:20:44.620Z,49.27
2019-03-06T12:23:14.317Z,50.33
2019-03-06T12:25:44.025Z,50.43
2019-03-06T12:28:14.457Z,49.30
2019-03-06T12:30:44.078Z,49.58
2019-03-06T12:33:18.631Z,49.40
2019-03-06T12:35:48.223Z,47.93
2019-03-06T12:38:18.217Z,47.03
2019-03-06T12:40:47.855Z,46.13
2019-03-06T12:43:17.445Z,46.92
2019-03-06T12:46:23.458Z,44.77
2019-03-06T12:49:08.365Z,44.70
2019-03-06T12:51:38.417Z,44.93
2019-03-06T12:54:08.866Z,43.75
2019-03-06T12:56:38.449Z,44.60
2019-03-06T12:59:08.140Z,43.35
2019-03-06T13:01:39.165Z,45.55
2019-03-06T13:04:08.916Z,42.03
2019-03-06T13:06:38.587Z,42.00
2019-03-06T13:09:13.657Z,40.98
2019-03-06T13:11:43.367Z,42.93
2019-03-06T13:14:13.077Z,40.43
2019-03-06T13:16:42.879Z,38.88
2019-03-06T13:19:12.378Z,38.63
2019-03-06T13:21:42.075Z,38.35
2019-03-06T13:24:12.192Z,36.80
2019-03-06T13:26:41.829Z,36.83
2019-03-06T13:29:11.446Z,35.43
2019-03-06T13:31:41.206Z,34.75
2019-03-06T13:34:51.190Z,33.65
2019-03-06T13:37:19.749Z,31.48
2019-03-06T13:39:49.478Z,33.10
2019-03-06T13:42:19.130Z,32.75
2019-03-06T13:44:48.792Z,33.15
2019-03-06T13:47:18.470Z,32.80
2019-03-06T13:49:48.202Z,32.08
2019-03-06T13:52:17.945Z,31.30
2019-03-06T13:54:49.307Z,30.48
2019-03-06T13:57:19.003Z,31.20
2019-03-06T13:59:48.754Z,30.85
2019-03-06T14:02:18.415Z,31.42
2019-03-06T14:04:48.146Z,30.82
2019-03-06T14:07:17.837Z,30.30
2019-03-06T14:09:47.455Z,29.60
2019-03-06T14:12:17.053Z,30.60
2019-03-06T14:14:46.686Z,30.23
2019-03-06T14:17:16.373Z,29.40
2019-03-06T14:19:46.362Z,30.30
2019-03-06T14:22:16.115Z,31.05
2019-03-06T14:24:45.717Z,32.40
2019-03-06T14:27:15.597Z,33.10
2019-03-06T14:29:45.260Z,31.90
2019-03-06T14:32:15.160Z,33.23
2019-03-06T14:34:44.821Z,32.23
2019-03-06T14:37:14.474Z,31.87
2019-03-06T14:39:44.198Z,31.48
2019-03-06T14:42:13.802Z,32.10
2019-03-06T14:44:43.537Z,32.95
2019-03-06T14:47:13.262Z,31.37
2019-03-06T14:49:43.017Z,30.82
2019-03-06T14:52:12.725Z,31.07
2019-03-06T14:54:42.441Z,30.82
2019-03-06T14:57:12.051Z,31.02
2019-03-06T14:59:41.690Z,31.00
2019-03-06T15:02:11.672Z,30.57
2019-03-06T15:04:41.316Z,30.43
2019-03-06T15:07:10.998Z,30.45
2019-03-06T15:09:40.660Z,29.30
2019-03-06T15:12:10.414Z,29.45
2019-03-06T15:14:40.049Z,29.37
2019-03-06T15:17:09.743Z,29.42
2019-03-06T15:19:39.486Z,27.25
2019-03-06T15:22:09.274Z,28.47
2019-03-06T15:24:41.613Z,27.27
2019-03-06T15:27:10.530Z,27.02
2019-03-06T15:29:40.399Z,25.60
2019-03-06T15:32:10.064Z,25.40
2019-03-06T15:34:39.689Z,25.08
2019-03-06T15:37:09.491Z,24.52
2019-03-06T15:39:44.516Z,24.35
2019-03-06T15:42:14.993Z,22.87
2019-03-06T15:44:44.651Z,23.15
2019-03-06T15:47:14.291Z,21.48
2019-03-06T15:49:43.974Z,22.13
2019-03-06T15:52:13.620Z,21.48
2019-03-06T15:54:43.291Z,21.40
2019-03-06T15:57:12.926Z,21.70
2019-03-06T15:59:42.651Z,21.27
2019-03-06T16:02:12.321Z,19.30
2019-03-06T16:04:41.947Z,19.70
2019-03-06T16:07:11.642Z,19.45
2019-03-06T16:09:41.478Z,20.72
2019-03-06T16:12:12.294Z,18.62
2019-03-06T16:14:42.011Z,19.65
2019-03-06T16:17:11.711Z,18.70
2019-03-06T16:19:41.467Z,18.62
2019-03-06T16:22:11.347Z,19.02
2019-03-06T16:24:41.047Z,19.95
2019-03-06T16:27:10.759Z,18.17
2019-03-06T16:29:40.473Z,19.15
2019-03-06T16:32:10.099Z,19.48
2019-03-06T16:34:39.686Z,19.77
2019-03-06T16:37:09.322Z,19.00
2019-03-06T16:39:39.005Z,19.27
2019-03-06T16:42:08.638Z,18.55
2019-03-06T16:44:38.327Z,18.12
2019-03-06T16:47:08.038Z,18.48
2019-03-06T16:49:38.047Z,18.48
2019-03-06T16:52:07.775Z,20.60
2019-03-06T16:54:37.477Z,20.30
2019-03-06T16:57:07.187Z,21.33
2019-03-06T16:59:37.038Z,19.57
2019-03-06T17:02:06.811Z,20.10
2019-03-06T17:04:36.459Z,19.90
2019-03-06T17:07:06.479Z,20.70
2019-03-06T17:09:36.599Z,19.82
2019-03-06T17:12:06.693Z,20.65
2019-03-06T17:14:36.397Z,20.97
2019-03-06T17:17:06.229Z,20.65
2019-03-06T17:19:35.966Z,21.25
2019-03-06T17:22:05.560Z,21.65
2019-03-06T17:24:35.084Z,21.97
2019-03-06T17:27:04.753Z,21.65
2019-03-06T17:29:34.276Z,20.60
2019-03-06T17:32:03.971Z,20.95
2019-03-06T17:34:33.704Z,22.17
2019-03-06T17:37:03.489Z,22.00
2019-03-06T17:39:33.064Z,28.10
2019-03-06T17:42:02.933Z,28.62
2019-03-06T17:44:32.626Z,24.20
2019-03-06T17:47:02.339Z,25.50
2019-03-06T17:49:31.941Z,23.57
2019-03-06T17:52:01.553Z,25.30
2019-03-06T17:54:31.297Z,27.82
2019-03-06T17:57:00.881Z,25.35
2019-03-06T17:59:31.195Z,24.45
2019-03-06T18:02:00.883Z,26.33
2019-03-06T18:04:31.527Z,26.07
2019-03-06T18:07:01.244Z,24.50
2019-03-06T18:09:30.880Z,25.75
2019-03-06T18:12:00.556Z,26.87
2019-03-06T18:14:30.199Z,25.30
2019-03-06T18:16:59.877Z,27.40
2019-03-06T18:19:29.600Z,24.50
2019-03-06T18:21:59.302Z,25.85
2019-03-06T18:24:29.124Z,26.30
2019-03-06T18:26:59.036Z,25.48
2019-03-06T18:29:28.686Z,25.15
2019-03-06T18:31:58.283Z,25.20
2019-03-06T18:34:27.973Z,24.80
2019-03-06T18:36:57.589Z,24.07
2019-03-06T18:39:28.780Z,23.42
2019-03-06T18:41:58.465Z,23.83
2019-03-06T18:44:28.263Z,23.90
2019-03-06T18:46:57.879Z,22.98
2019-03-06T18:49:27.558Z,23.73
2019-03-06T18:51:57.144Z,22.13
2019-03-06T18:54:26.805Z,22.65
2019-03-06T18:56:56.486Z,22.30
2019-03-06T18:59:26.240Z,22.90
2019-03-06T19:01:55.898Z,22.15
2019-03-06T19:04:25.594Z,21.85
2019-03-06T19:06:55.326Z,22.32
2019-03-06T19:09:25.283Z,22.35
2019-03-06T19:11:54.954Z,20.85
2019-03-06T19:14:24.600Z,21.17
2019-03-06T19:16:54.281Z,21.35
2019-03-06T19:19:23.923Z,20.90
2019-03-06T19:21:53.524Z,20.52
2019-03-06T19:24:23.551Z,20.20
2019-03-06T19:26:53.228Z,20.02
2019-03-06T19:29:23.004Z,20.37
2019-03-06T19:31:52.745Z,20.05
2019-03-06T19:34:22.453Z,20.35
2019-03-06T19:36:52.099Z,19.35
2019-03-06T19:39:22.458Z,18.80
2019-03-06T19:41:52.209Z,19.80
2019-03-06T19:44:21.832Z,19.37
2019-03-06T19:46:51.526Z,20.25
2019-03-06T19:49:21.139Z,20.35
2019-03-06T19:51:51.805Z,19.15
2019-03-06T19:54:21.677Z,18.90
2019-03-06T19:56:51.300Z,17.85
2019-03-06T19:59:20.994Z,19.15
2019-03-06T20:01:52.486Z,20.05
2019-03-06T20:04:22.153Z,19.95
2019-03-06T20:06:52.097Z,19.80
2019-03-06T20:09:26.132Z,20.12
2019-03-06T20:11:55.802Z,19.42
2019-03-06T20:14:25.418Z,20.12
2019-03-06T20:16:55.116Z,19.80
2019-03-06T20:19:24.750Z,20.32
2019-03-06T20:21:54.640Z,19.57
2019-03-06T20:24:24.256Z,20.05
2019-03-06T20:26:54.001Z,19.35
2019-03-06T20:29:23.670Z,19.37
2019-03-06T20:31:53.318Z,18.57
2019-03-06T20:34:22.992Z,19.12
2019-03-06T20:36:52.828Z,19.10
2019-03-06T20:39:22.523Z,18.37
2019-03-06T20:41:52.135Z,18.25
2019-03-06T20:44:21.844Z,18.07
2019-03-06T20:46:51.461Z,17.50
2019-03-06T20:49:21.152Z,18.20
2019-03-06T20:51:50.893Z,17.42
2019-03-06T20:54:20.574Z,16.95
2019-03-06T20:56:50.347Z,16.55
2019-03-06T20:59:19.916Z,17.00
2019-03-06T21:01:49.613Z,17.35
2019-03-06T21:04:20.203Z,17.73
2019-03-06T21:06:50.154Z,16.27
2019-03-06T21:09:19.873Z,16.52
2019-03-06T21:11:49.778Z,16.17
2019-03-06T21:14:19.501Z,17.07
2019-03-06T21:16:49.201Z,15.45
2019-03-06T21:19:18.921Z,16.15
2019-03-06T21:21:48.538Z,16.07
2019-03-06T21:24:18.238Z,15.70
2019-03-06T21:26:47.865Z,15.80
2019-03-06T21:29:17.567Z,15.18
2019-03-06T21:31:47.180Z,14.85
2019-03-06T21:34:16.884Z,13.98
2019-03-06T21:36:46.581Z,15.35
2019-03-06T21:39:23.615Z,14.85
2019-03-06T21:41:53.272Z,14.65
2019-03-06T21:44:22.917Z,15.15
2019-03-06T21:46:52.595Z,14.93
2019-03-06T21:49:22.447Z,13.98
2019-03-06T21:51:52.121Z,14.40
2019-03-06T21:54:21.950Z,15.08
2019-03-06T21:56:51.649Z,15.13
2019-03-06T21:59:21.365Z,13.53
2019-03-06T22:01:51.002Z,14.55
2019-03-06T22:04:20.684Z,14.75
2019-03-06T22:06:50.376Z,14.47
2019-03-06T22:09:20.303Z,14.68
2019-03-06T22:11:49.929Z,14.03
2019-03-06T22:14:21.165Z,13.90
2019-03-06T22:16:50.901Z,14.23
2019-03-06T22:19:20.574Z,14.03
2019-03-06T22:21:50.423Z,13.50
2019-03-06T22:24:20.197Z,13.53
2019-03-06T22:26:49.832Z,14.25
2019-03-06T22:29:19.520Z,14.85
2019-03-06T22:31:49.161Z,14.23
2019-03-06T22:34:18.746Z,13.85
2019-03-06T22:36:48.678Z,13.38
2019-03-06T22:39:18.376Z,13.62
2019-03-06T22:41:48.081Z,13.43
2019-03-06T22:44:17.710Z,12.93
2019-03-06T22:46:47.394Z,13.10
2019-03-06T22:49:17.030Z,13.40
2019-03-06T22:51:46.924Z,13.28
2019-03-06T22:54:16.555Z,11.95
2019-03-06T22:56:46.236Z,12.70
2019-03-06T22:59:15.874Z,12.30
2019-03-06T23:01:45.561Z,12.03
2019-03-06T23:04:15.286Z,11.93
2019-03-06T23:06:44.991Z,12.25
2019-03-06T23:09:14.801Z,12.07
2019-03-06T23:11:44.502Z,12.55
2019-03-06T23:14:14.212Z,12.47
2019-03-06T23:16:43.849Z,11.73
2019-03-06T23:19:13.585Z,11.53
2019-03-06T23:21:43.276Z,12.58
2019-03-06T23:24:12.960Z,11.80
2019-03-06T23:26:43.308Z,12.10
2019-03-06T23:29:13.021Z,11.63
2019-03-06T23:31:42.906Z,12.05
2019-03-06T23:34:12.540Z,11.43
2019-03-06T23:36:42.226Z,11.40
2019-03-06T23:39:14.917Z,10.98
2019-03-06T23:41:44.619Z,10.95
2019-03-06T23:44:15.762Z,10.60
2019-03-06T23:46:45.390Z,11.12
2019-03-06T23:49:15.090Z,10.72
2019-03-06T23:52:02.857Z,10.55
2019-03-06T23:54:32.658Z,10.63
2019-03-06T23:57:02.350Z,10.08
2019-03-06T23:59:31.973Z,10.13
